CheckWX is a tool to help pilots better visualize weather data.  It is not intended as a substitute for an official pre-flight weather briefing.

02:35:17 UTC

CYXJ TAF
Fort St John Airport
Fort St.John, Canada
TAF CYXJ 230038Z 2301/2313 VRB03KT P6SM BKN240 BECMG 2306/2308 01008KT RMK NXT FCST BY 230700Z

Mar-23@
01:00 UTC

Mar-23 @ 01:00 UTC

Mar-23@
06:00 UTC

Mar-23 @ 06:00 UTC

TAF CYXJ 230038Z 2301/2313 VRB03KT P6SM BKN240
Wind
  • Variable at 3 KTS
Cloud Levels
  • Broken at 24,000' AGL

Mar-23@
06:00 UTC

Mar-23 @ 06:00 UTC

Mar-23@
13:00 UTC

Mar-23 @ 13:00 UTC

BECMG 2306/2308 01008KT RMK NXT FCST BY 230700Z

Becoming

Becoming Conditions expected by Sat, Mar 23, 2019 @ 08:00 UTC

Wind
  • 010° at 8 KTS
Cloud Levels
  • Broken at 24,000' AGL